Terminal Aerodrome Forecast
Issued by NWS Grand Forks, ND

Home | Current Version | Previous Version | Graphics & Text | Print | Product List | Glossary On
Versions: 1 2 3 4 5 6 7 8 9 10 11 12
000
FTUS43 KFGF 302326
TAFFAR
TAF
KFAR 302326Z 0100/0124 04013G22KT P6SM SCT250
     FM010300 03005KT P6SM FEW250
     FM011600 01008KT P6SM SCT250=

USA.gov is the U.S. government's official web portal to all federal, state and local government web resources and services.